Aérodrome :
LOGIN :

S'inscrire | Disclaimer

   EN    FR    IT 

 










Légende :    VFR   VFR Marginal   IFR   IFR Intensif   IFR Très Intensif
Visi : 
Plafond : 
>= 8 km
>= 3000ft
5 à 8 km
1000 à 3000 ft
1500m à 5 km
500 à 1000 ft
800 à 1500m
200 à 500 ft
< 800m
< 200 ft
Symboles :   Orages  Brouillard  Fortes neiges  Fortes précipitations  Vent > 20 kt
SIGMETs :   Divers  Orages  Givrage  Turbulence  Onde Orograph.  Cendres Volcan.






- Altitude de l'aérodrome : 231 ft
- Code IATA : WTN


EGXW - RAF Waddington

DERNIER METAR :
  • 091920Z AUTO 25005KT 9000 BR NCD M00/M01 Q1007

METARs EXPIRÉS :
  • 090450Z AUTO 32008KT 9999 NCD M01/M01 Q1008
  • 091850Z AUTO 26005KT 9000 NCD M00/M01 Q1007
  • 091820Z AUTO 27006KT 9999 NCD 00/M01 Q1006
  • 091750Z AUTO 26006KT 9999 NCD 00/M01 Q1006
  • 091720Z AUTO 26005KT 9999 NCD 00/M01 Q1006
  • 091650Z 25006KT 9999 FEW022 01/M01 Q1006 NOSIG RMK BLU BLU

TAF TAF EGXW
Valide du 09 à 18h jusqu'au 10 à 12h UTC


091638Z 0918/1012 27005KT 9999 FEW025
PROB40 0918/1012 5000 BR
PROB30 0922/1011 0300 FZFG VV///



MET'MAP, la Météo Aéronautique d'un coup d'oeil ! - Copyright ORBIFLY Décembre 2007 - Disclaimer

ORBIFLY MET'MAP TEAM :

Programmation & Développement : Alexandra Zaïnal
Sur une idée originale de : Baudouin d'Aumeries
Soutien technique & logistique : Manuel Goepfert
Assistance : Marc-Olivier Méhu




SOURCES & CREDITS :

   NOAA